sensor_id;sensor_type;location;lat;lon;timestamp;temperature;humidity
7212;DHT22;3647;48.792;9.802;2023-03-14T05:26:11;9.30;99.90
7212;DHT22;3647;48.792;9.802;2023-03-14T05:28:38;9.30;99.90
7212;DHT22;3647;48.792;9.802;2023-03-14T05:31:06;9.30;99.90
7212;DHT22;3647;48.792;9.802;2023-03-14T05:33:33;9.30;99.90
7212;DHT22;3647;48.792;9.802;2023-03-14T05:36:00;9.30;99.90
7212;DHT22;3647;48.792;9.802;2023-03-14T05:38:27;9.30;99.90
7212;DHT22;3647;48.792;9.802;2023-03-14T05:40:54;9.30;99.90
7212;DHT22;3647;48.792;9.802;2023-03-14T05:43:22;9.50;99.90
7212;DHT22;3647;48.792;9.802;2023-03-14T05:45:48;9.20;99.90
7212;DHT22;3647;48.792;9.802;2023-03-14T05:48:15;9.30;99.90
7212;DHT22;3647;48.792;9.802;2023-03-14T05:50:43;9.30;99.90
7212;DHT22;3647;48.792;9.802;2023-03-14T05:53:10;9.30;99.90
7212;DHT22;3647;48.792;9.802;2023-03-14T05:55:37;9.50;99.90
7212;DHT22;3647;48.792;9.802;2023-03-14T05:58:04;10.10;99.90
7212;DHT22;3647;48.792;9.802;2023-03-14T06:00:32;9.20;99.90
7212;DHT22;3647;48.792;9.802;2023-03-14T06:02:59;9.30;99.90
7212;DHT22;3647;48.792;9.802;2023-03-14T06:05:26;9.30;99.90
7212;DHT22;3647;48.792;9.802;2023-03-14T06:07:53;9.20;99.90
7212;DHT22;3647;48.792;9.802;2023-03-14T06:10:20;9.30;99.90
7212;DHT22;3647;48.792;9.802;2023-03-14T13:33:03;10.80;99.90
7212;DHT22;3647;48.792;9.802;2023-03-14T13:35:40;10.80;99.90
7212;DHT22;3647;48.792;9.802;2023-03-14T13:38:16;10.90;99.90
7212;DHT22;3647;48.792;9.802;2023-03-14T13:40:44;11.00;99.90
7212;DHT22;3647;48.792;9.802;2023-03-14T13:43:15;12.90;99.90
7212;DHT22;3647;48.792;9.802;2023-03-14T13:45:50;11.70;99.90
7212;DHT22;3647;48.792;9.802;2023-03-14T13:48:19;12.20;99.90
7212;DHT22;3647;48.792;9.802;2023-03-14T13:50:53;11.20;99.90
7212;DHT22;3647;48.792;9.802;2023-03-14T13:53:21;11.10;99.90
7212;DHT22;3647;48.792;9.802;2023-03-14T13:55:49;11.00;99.90
7212;DHT22;3647;48.792;9.802;2023-03-14T13:58:24;10.80;99.90
7212;DHT22;3647;48.792;9.802;2023-03-14T14:01:03;10.60;99.90
7212;DHT22;3647;48.792;9.802;2023-03-14T14:03:36;10.60;99.90
7212;DHT22;3647;48.792;9.802;2023-03-14T14:06:19;10.50;99.90
7212;DHT22;3647;48.792;9.802;2023-03-14T14:08:48;10.30;99.90
7212;DHT22;3647;48.792;9.802;2023-03-14T14:11:21;10.30;99.90
7212;DHT22;3647;48.792;9.802;2023-03-14T14:13:49;10.20;99.90
7212;DHT22;3647;48.792;9.802;2023-03-14T14:16:20;10.20;99.90
7212;DHT22;3647;48.792;9.802;2023-03-14T14:18:55;10.20;99.90
7212;DHT22;3647;48.792;9.802;2023-03-14T14:21:23;10.20;99.90
7212;DHT22;3647;48.792;9.802;2023-03-14T14:23:50;10.30;99.90
7212;DHT22;3647;48.792;9.802;2023-03-14T14:26:18;10.20;99.90
7212;DHT22;3647;48.792;9.802;2023-03-14T14:28:46;10.20;99.90
7212;DHT22;3647;48.792;9.802;2023-03-14T14:31:20;10.20;99.90
7212;DHT22;3647;48.792;9.802;2023-03-14T14:33:55;10.10;99.90
7212;DHT22;3647;48.792;9.802;2023-03-14T14:36:24;10.20;99.90
7212;DHT22;3647;48.792;9.802;2023-03-14T14:38:53;10.30;99.90
7212;DHT22;3647;48.792;9.802;2023-03-14T14:41:20;10.20;99.90
7212;DHT22;3647;48.792;9.802;2023-03-14T14:43:48;10.20;99.90
7212;DHT22;3647;48.792;9.802;2023-03-14T14:46:18;10.10;99.90
7212;DHT22;3647;48.792;9.802;2023-03-14T14:48:45;9.90;99.90
7212;DHT22;3647;48.792;9.802;2023-03-14T14:51:32;9.70;99.90
7212;DHT22;3647;48.792;9.802;2023-03-14T14:54:04;9.50;99.90
7212;DHT22;3647;48.792;9.802;2023-03-14T14:56:36;9.30;99.90
7212;DHT22;3647;48.792;9.802;2023-03-14T14:59:05;9.40;99.90
7212;DHT22;3647;48.792;9.802;2023-03-14T15:01:34;9.50;99.90
7212;DHT22;3647;48.792;9.802;2023-03-14T15:04:04;9.60;99.90
7212;DHT22;3647;48.792;9.802;2023-03-14T15:06:37;9.50;99.90
7212;DHT22;3647;48.792;9.802;2023-03-14T15:09:05;9.50;99.90
7212;DHT22;3647;48.792;9.802;2023-03-14T15:11:32;9.50;99.90
7212;DHT22;3647;48.792;9.802;2023-03-14T15:13:58;9.40;99.90
7212;DHT22;3647;48.792;9.802;2023-03-14T15:16:28;9.70;99.90
7212;DHT22;3647;48.792;9.802;2023-03-14T15:18:56;9.20;99.90
7212;DHT22;3647;48.792;9.802;2023-03-14T15:21:24;9.20;99.90
7212;DHT22;3647;48.792;9.802;2023-03-14T15:23:53;9.20;99.90
7212;DHT22;3647;48.792;9.802;2023-03-14T15:26:22;9.60;99.90
7212;DHT22;3647;48.792;9.802;2023-03-14T15:28:49;9.80;99.90
7212;DHT22;3647;48.792;9.802;2023-03-14T15:31:17;9.10;99.90
7212;DHT22;3647;48.792;9.802;2023-03-14T15:33:45;11.30;99.90
7212;DHT22;3647;48.792;9.802;2023-03-14T15:36:21;9.00;99.90
7212;DHT22;3647;48.792;9.802;2023-03-14T15:38:48;9.10;99.90
7212;DHT22;3647;48.792;9.802;2023-03-14T15:41:17;9.10;99.90
7212;DHT22;3647;48.792;9.802;2023-03-14T15:43:43;9.10;99.90
7212;DHT22;3647;48.792;9.802;2023-03-14T15:46:11;9.00;99.90
7212;DHT22;3647;48.792;9.802;2023-03-14T15:48:38;9.00;99.90
7212;DHT22;3647;48.792;9.802;2023-03-14T15:51:05;9.10;99.90
7212;DHT22;3647;48.792;9.802;2023-03-14T15:53:32;9.20;99.90
7212;DHT22;3647;48.792;9.802;2023-03-14T15:56:02;9.20;99.90
7212;DHT22;3647;48.792;9.802;2023-03-14T15:58:30;9.30;99.90
7212;DHT22;3647;48.792;9.802;2023-03-14T16:00:59;9.40;99.90
7212;DHT22;3647;48.792;9.802;2023-03-14T16:03:26;9.50;99.90
7212;DHT22;3647;48.792;9.802;2023-03-14T16:05:53;9.50;99.90
7212;DHT22;3647;48.792;9.802;2023-03-14T16:08:20;9.50;99.90
7212;DHT22;3647;48.792;9.802;2023-03-14T16:10:47;9.40;99.90
7212;DHT22;3647;48.792;9.802;2023-03-14T16:13:15;9.40;99.90
7212;DHT22;3647;48.792;9.802;2023-03-14T16:15:52;9.40;99.90
7212;DHT22;3647;48.792;9.802;2023-03-14T16:18:19;9.30;99.90
7212;DHT22;3647;48.792;9.802;2023-03-14T16:20:51;9.30;99.90
7212;DHT22;3647;48.792;9.802;2023-03-14T16:23:18;9.30;99.90
7212;DHT22;3647;48.792;9.802;2023-03-14T16:25:45;9.40;99.90
7212;DHT22;3647;48.792;9.802;2023-03-14T16:28:12;9.40;99.90
7212;DHT22;3647;48.792;9.802;2023-03-14T16:30:38;9.40;99.90
7212;DHT22;3647;48.792;9.802;2023-03-14T16:33:07;9.40;99.90
7212;DHT22;3647;48.792;9.802;2023-03-14T16:35:34;9.30;99.90
7212;DHT22;3647;48.792;9.802;2023-03-14T16:38:01;9.20;99.90
7212;DHT22;3647;48.792;9.802;2023-03-14T16:40:28;9.10;99.90
7212;DHT22;3647;48.792;9.802;2023-03-14T16:42:55;9.80;99.90
7212;DHT22;3647;48.792;9.802;2023-03-14T16:45:22;8.90;99.90
7212;DHT22;3647;48.792;9.802;2023-03-14T16:47:49;8.90;99.90
7212;DHT22;3647;48.792;9.802;2023-03-14T16:50:17;8.80;99.90
7212;DHT22;3647;48.792;9.802;2023-03-14T16:52:43;8.70;99.90
7212;DHT22;3647;48.792;9.802;2023-03-14T16:55:12;8.60;99.90
7212;DHT22;3647;48.792;9.802;2023-03-14T16:57:39;8.60;99.90
7212;DHT22;3647;48.792;9.802;2023-03-14T17:00:07;8.60;99.90
7212;DHT22;3647;48.792;9.802;2023-03-14T17:02:36;8.50;99.90
7212;DHT22;3647;48.792;9.802;2023-03-14T17:05:03;8.50;99.90
7212;DHT22;3647;48.792;9.802;2023-03-14T17:07:31;8.40;99.90
7212;DHT22;3647;48.792;9.802;2023-03-14T17:09:58;8.40;99.90
7212;DHT22;3647;48.792;9.802;2023-03-14T17:12:25;8.40;99.90
7212;DHT22;3647;48.792;9.802;2023-03-14T17:14:52;8.40;99.90
7212;DHT22;3647;48.792;9.802;2023-03-14T17:17:19;8.30;99.90
7212;DHT22;3647;48.792;9.802;2023-03-14T17:19:46;8.40;99.90
7212;DHT22;3647;48.792;9.802;2023-03-14T17:22:13;8.40;99.90
7212;DHT22;3647;48.792;9.802;2023-03-14T17:24:41;8.40;99.90
7212;DHT22;3647;48.792;9.802;2023-03-14T17:27:08;8.40;99.90
7212;DHT22;3647;48.792;9.802;2023-03-14T17:29:35;8.40;99.90
7212;DHT22;3647;48.792;9.802;2023-03-14T17:32:02;8.40;99.90
7212;DHT22;3647;48.792;9.802;2023-03-14T17:34:28;8.40;99.90
7212;DHT22;3647;48.792;9.802;2023-03-14T17:36:55;8.40;99.90
7212;DHT22;3647;48.792;9.802;2023-03-14T17:39:22;8.30;99.90
7212;DHT22;3647;48.792;9.802;2023-03-14T17:41:50;8.60;99.90
7212;DHT22;3647;48.792;9.802;2023-03-14T17:44:17;8.30;99.90
7212;DHT22;3647;48.792;9.802;2023-03-14T17:46:43;8.30;99.90
7212;DHT22;3647;48.792;9.802;2023-03-14T17:49:10;8.40;99.90
7212;DHT22;3647;48.792;9.802;2023-03-14T17:51:37;8.40;99.90
7212;DHT22;3647;48.792;9.802;2023-03-14T17:54:04;8.40;99.90
7212;DHT22;3647;48.792;9.802;2023-03-14T17:56:31;8.30;99.90
7212;DHT22;3647;48.792;9.802;2023-03-14T17:58:59;8.30;99.90
7212;DHT22;3647;48.792;9.802;2023-03-14T18:01:27;9.50;99.90
7212;DHT22;3647;48.792;9.802;2023-03-14T18:03:54;8.20;99.90
7212;DHT22;3647;48.792;9.802;2023-03-14T18:06:22;8.20;99.90
7212;DHT22;3647;48.792;9.802;2023-03-14T18:08:51;8.20;99.90
7212;DHT22;3647;48.792;9.802;2023-03-14T18:11:19;8.90;99.90
7212;DHT22;3647;48.792;9.802;2023-03-14T18:13:46;8.10;99.90
7212;DHT22;3647;48.792;9.802;2023-03-14T18:16:14;8.00;99.90
7212;DHT22;3647;48.792;9.802;2023-03-14T18:18:41;8.00;99.90
7212;DHT22;3647;48.792;9.802;2023-03-14T18:21:08;7.90;99.90
7212;DHT22;3647;48.792;9.802;2023-03-14T18:23:36;7.80;99.90
7212;DHT22;3647;48.792;9.802;2023-03-14T18:26:03;8.00;99.90
7212;DHT22;3647;48.792;9.802;2023-03-14T18:28:29;7.80;99.90
7212;DHT22;3647;48.792;9.802;2023-03-14T18:31:00;8.10;99.90
7212;DHT22;3647;48.792;9.802;2023-03-14T18:33:28;7.70;99.90
7212;DHT22;3647;48.792;9.802;2023-03-14T18:36:02;7.70;99.90
7212;DHT22;3647;48.792;9.802;2023-03-14T18:38:29;7.60;99.90
7212;DHT22;3647;48.792;9.802;2023-03-14T18:40:56;7.70;99.90
7212;DHT22;3647;48.792;9.802;2023-03-14T18:43:28;7.60;99.90
7212;DHT22;3647;48.792;9.802;2023-03-14T18:45:56;7.50;99.90
7212;DHT22;3647;48.792;9.802;2023-03-14T18:48:23;7.50;99.90
7212;DHT22;3647;48.792;9.802;2023-03-14T18:50:51;7.50;99.90
7212;DHT22;3647;48.792;9.802;2023-03-14T18:53:18;7.50;99.90
7212;DHT22;3647;48.792;9.802;2023-03-14T18:55:46;7.40;99.90
7212;DHT22;3647;48.792;9.802;2023-03-14T18:58:13;7.70;99.90
7212;DHT22;3647;48.792;9.802;2023-03-14T19:00:39;7.30;99.90
7212;DHT22;3647;48.792;9.802;2023-03-14T19:03:06;7.20;99.90
7212;DHT22;3647;48.792;9.802;2023-03-14T19:05:33;7.10;99.90
7212;DHT22;3647;48.792;9.802;2023-03-14T19:08:01;7.00;99.90
7212;DHT22;3647;48.792;9.802;2023-03-14T19:10:28;7.00;99.90
7212;DHT22;3647;48.792;9.802;2023-03-14T19:12:57;6.90;99.90
7212;DHT22;3647;48.792;9.802;2023-03-14T19:15:24;6.90;99.90
7212;DHT22;3647;48.792;9.802;2023-03-14T19:17:51;6.90;99.90
7212;DHT22;3647;48.792;9.802;2023-03-14T19:20:18;7.20;99.90
7212;DHT22;3647;48.792;9.802;2023-03-14T19:22:44;6.90;99.90
7212;DHT22;3647;48.792;9.802;2023-03-14T19:25:14;6.80;99.90
7212;DHT22;3647;48.792;9.802;2023-03-14T19:27:41;6.80;99.90
7212;DHT22;3647;48.792;9.802;2023-03-14T19:30:08;6.80;99.90
7212;DHT22;3647;48.792;9.802;2023-03-14T19:32:35;6.70;99.90
7212;DHT22;3647;48.792;9.802;2023-03-14T19:35:02;6.70;99.90
7212;DHT22;3647;48.792;9.802;2023-03-14T19:37:29;6.60;99.90
7212;DHT22;3647;48.792;9.802;2023-03-14T19:39:56;6.60;99.90
7212;DHT22;3647;48.792;9.802;2023-03-14T19:42:24;6.60;99.90
7212;DHT22;3647;48.792;9.802;2023-03-14T19:44:51;6.60;99.90
7212;DHT22;3647;48.792;9.802;2023-03-14T19:49:48;6.40;99.90
7212;DHT22;3647;48.792;9.802;2023-03-14T19:52:14;6.70;99.90
7212;DHT22;3647;48.792;9.802;2023-03-14T19:54:41;6.30;99.90
7212;DHT22;3647;48.792;9.802;2023-03-14T19:57:08;6.30;99.90
7212;DHT22;3647;48.792;9.802;2023-03-14T19:59:36;6.30;99.90
7212;DHT22;3647;48.792;9.802;2023-03-14T20:02:03;6.30;99.90
7212;DHT22;3647;48.792;9.802;2023-03-14T20:04:30;6.20;99.90
7212;DHT22;3647;48.792;9.802;2023-03-14T20:06:58;6.30;99.90
7212;DHT22;3647;48.792;9.802;2023-03-14T20:09:29;6.20;99.90
7212;DHT22;3647;48.792;9.802;2023-03-14T20:11:56;6.20;99.90
7212;DHT22;3647;48.792;9.802;2023-03-14T20:14:23;6.30;99.90
7212;DHT22;3647;48.792;9.802;2023-03-14T20:16:51;6.20;99.90
7212;DHT22;3647;48.792;9.802;2023-03-14T20:19:19;6.30;99.90
7212;DHT22;3647;48.792;9.802;2023-03-14T20:21:46;6.20;99.90
7212;DHT22;3647;48.792;9.802;2023-03-14T20:24:13;7.30;99.90
7212;DHT22;3647;48.792;9.802;2023-03-14T20:26:40;6.20;99.90
7212;DHT22;3647;48.792;9.802;2023-03-14T20:29:07;6.20;99.90
7212;DHT22;3647;48.792;9.802;2023-03-14T20:31:34;6.20;99.90
7212;DHT22;3647;48.792;9.802;2023-03-14T20:34:04;6.20;99.90
7212;DHT22;3647;48.792;9.802;2023-03-14T20:36:31;6.10;99.90
7212;DHT22;3647;48.792;9.802;2023-03-14T20:38:59;6.10;99.90
7212;DHT22;3647;48.792;9.802;2023-03-14T20:41:26;6.10;99.90
7212;DHT22;3647;48.792;9.802;2023-03-14T20:43:53;6.10;99.90
7212;DHT22;3647;48.792;9.802;2023-03-14T20:46:19;6.10;99.90
7212;DHT22;3647;48.792;9.802;2023-03-14T20:48:46;6.00;99.90
7212;DHT22;3647;48.792;9.802;2023-03-14T20:51:14;6.30;99.90
7212;DHT22;3647;48.792;9.802;2023-03-14T20:53:41;5.80;99.90
7212;DHT22;3647;48.792;9.802;2023-03-14T20:56:09;5.80;99.90
7212;DHT22;3647;48.792;9.802;2023-03-14T20:58:36;6.20;99.90
7212;DHT22;3647;48.792;9.802;2023-03-14T21:01:04;5.80;99.90
7212;DHT22;3647;48.792;9.802;2023-03-14T21:03:30;5.90;99.90
7212;DHT22;3647;48.792;9.802;2023-03-14T21:05:57;5.90;99.90
7212;DHT22;3647;48.792;9.802;2023-03-14T21:08:26;5.90;99.90
7212;DHT22;3647;48.792;9.802;2023-03-14T21:10:54;5.90;99.90
